LOT024W EPWA-EPSC
Flight info
| Callsign | LOT024W |
|---|---|
| Flight time | 0h 47m |
| Altitude | 36000 |
| Route | LOLSI DCT DIBLO DCT INDIG DCT FORFE DCT ZAWIK |
| Aircraft | B736/M-SDE2E3FGHIRWXY/LB1 |
Departure
| Time | 2026-04-24 19:00 |
|---|---|
| Airport | Warsaw Chopin Airport (EPWA) |
Arrival
| Time | 2026-04-24 19:48 |
|---|---|
| Airport | Solidarity Szczecin–Goleniów Airport (EPSC) |
| Time | Latitude | Longitude | Altitude | Speed | Heading |
|---|---|---|---|---|---|
| 2026-04-24 18:54 | 52.16981 | 20.96995 | 338 ft | 0 kts | 152° |
| 2026-04-24 18:55 | 52.16980 | 20.96996 | 333 ft | 1 kts | 152° |
| 2026-04-24 18:56 | 52.16961 | 20.97012 | 338 ft | 5 kts | 152° |
| 2026-04-24 18:56 | 52.16915 | 20.97051 | 336 ft | 10 kts | 153° |
| 2026-04-24 18:56 | 52.16843 | 20.97115 | 335 ft | 13 kts | 151° |
| 2026-04-24 18:56 | 52.16755 | 20.97192 | 336 ft | 15 kts | 152° |
| 2026-04-24 18:57 | 52.16663 | 20.97272 | 335 ft | 16 kts | 152° |
| 2026-04-24 18:57 | 52.16573 | 20.97384 | 338 ft | 17 kts | 120° |
| 2026-04-24 18:57 | 52.16524 | 20.97551 | 336 ft | 16 kts | 115° |
| 2026-04-24 18:57 | 52.16479 | 20.97712 | 336 ft | 15 kts | 115° |
| 2026-04-24 18:58 | 52.16420 | 20.97802 | 337 ft | 10 kts | 177° |
| 2026-04-24 18:58 | 52.16390 | 20.97786 | 338 ft | 0 kts | 206° |
| 2026-04-24 18:59 | 52.16389 | 20.97785 | 338 ft | 1 kts | 206° |
| 2026-04-24 18:59 | 52.16359 | 20.97761 | 338 ft | 10 kts | 206° |
| 2026-04-24 18:59 | 52.16313 | 20.97661 | 335 ft | 13 kts | 274° |
| 2026-04-24 18:59 | 52.16354 | 20.97501 | 336 ft | 32 kts | 294° |
| 2026-04-24 19:00 | 52.16567 | 20.96735 | 338 ft | 114 kts | 294° |
| 2026-04-24 19:00 | 52.16954 | 20.95296 | 586 ft | 152 kts | 294° |
| 2026-04-24 19:00 | 52.17398 | 20.93706 | 1503 ft | 144 kts | 296° |
| 2026-04-24 19:00 | 52.17798 | 20.92297 | 2556 ft | 135 kts | 297° |
| 2026-04-24 19:01 | 52.18188 | 20.90754 | 3086 ft | 166 kts | 281° |
| 2026-04-24 19:01 | 52.18179 | 20.88665 | 3439 ft | 202 kts | 271° |
| 2026-04-24 19:01 | 52.18175 | 20.86188 | 3864 ft | 227 kts | 272° |
| 2026-04-24 19:01 | 52.18181 | 20.83593 | 4689 ft | 231 kts | 272° |
| 2026-04-24 19:02 | 52.18184 | 20.81847 | 5288 ft | 232 kts | 273° |
| 2026-04-24 19:02 | 52.18187 | 20.78326 | 6471 ft | 235 kts | 273° |
| 2026-04-24 19:02 | 52.18187 | 20.75636 | 7255 ft | 240 kts | 273° |
| 2026-04-24 19:02 | 52.18187 | 20.72823 | 7843 ft | 260 kts | 272° |
| 2026-04-24 19:03 | 52.18185 | 20.69784 | 8680 ft | 271 kts | 272° |
| 2026-04-24 19:03 | 52.18179 | 20.66702 | 9655 ft | 278 kts | 272° |
| 2026-04-24 19:03 | 52.18514 | 20.63562 | 10458 ft | 287 kts | 290° |
| 2026-04-24 19:03 | 52.19194 | 20.60601 | 10745 ft | 313 kts | 292° |
| 2026-04-24 19:04 | 52.20023 | 20.57217 | 11417 ft | 325 kts | 293° |
| 2026-04-24 19:04 | 52.20877 | 20.53787 | 12362 ft | 328 kts | 293° |
| 2026-04-24 19:04 | 52.21743 | 20.50308 | 13368 ft | 331 kts | 292° |
| 2026-04-24 19:04 | 52.22614 | 20.46789 | 14277 ft | 336 kts | 292° |
| 2026-04-24 19:05 | 52.23487 | 20.43247 | 15214 ft | 338 kts | 292° |
| 2026-04-24 19:05 | 52.24360 | 20.39686 | 16153 ft | 341 kts | 293° |
| 2026-04-24 19:05 | 52.25242 | 20.36074 | 17067 ft | 345 kts | 293° |
| 2026-04-24 19:05 | 52.26136 | 20.32406 | 17983 ft | 349 kts | 293° |
| 2026-04-24 19:06 | 52.27032 | 20.28717 | 18829 ft | 352 kts | 293° |
| 2026-04-24 19:06 | 52.27934 | 20.24992 | 19696 ft | 354 kts | 293° |
| 2026-04-24 19:06 | 52.28838 | 20.21253 | 20540 ft | 356 kts | 293° |
| 2026-04-24 19:06 | 52.29750 | 20.17473 | 21374 ft | 358 kts | 293° |
| 2026-04-24 19:07 | 52.30686 | 20.13584 | 22215 ft | 361 kts | 293° |
| 2026-04-24 19:07 | 52.31607 | 20.09755 | 23024 ft | 365 kts | 293° |
| 2026-04-24 19:07 | 52.32218 | 20.07210 | 23541 ft | 367 kts | 293° |
| 2026-04-24 19:07 | 52.33465 | 20.02006 | 24430 ft | 371 kts | 293° |
| 2026-04-24 19:08 | 52.34415 | 19.98033 | 25113 ft | 373 kts | 293° |
| 2026-04-24 19:08 | 52.35356 | 19.94090 | 25786 ft | 375 kts | 293° |
| 2026-04-24 19:08 | 52.36314 | 19.90068 | 26451 ft | 378 kts | 294° |
| 2026-04-24 19:08 | 52.37273 | 19.86035 | 27091 ft | 381 kts | 294° |
| 2026-04-24 19:09 | 52.38240 | 19.81961 | 27712 ft | 384 kts | 294° |
| 2026-04-24 19:09 | 52.39207 | 19.77878 | 28354 ft | 386 kts | 294° |
| 2026-04-24 19:09 | 52.40171 | 19.73798 | 29184 ft | 383 kts | 294° |
| 2026-04-24 19:09 | 52.41125 | 19.69749 | 30143 ft | 377 kts | 294° |
| 2026-04-24 19:10 | 52.42065 | 19.65751 | 30933 ft | 372 kts | 294° |
| 2026-04-24 19:10 | 52.42990 | 19.61814 | 31589 ft | 371 kts | 294° |
| 2026-04-24 19:10 | 52.43924 | 19.57834 | 32206 ft | 370 kts | 294° |
| 2026-04-24 19:10 | 52.44840 | 19.53922 | 32866 ft | 367 kts | 294° |
| 2026-04-24 19:11 | 52.45760 | 19.49989 | 33561 ft | 364 kts | 294° |
| 2026-04-24 19:11 | 52.46649 | 19.46180 | 34157 ft | 362 kts | 294° |
| 2026-04-24 19:11 | 52.47555 | 19.42289 | 34595 ft | 363 kts | 294° |
| 2026-04-24 19:11 | 52.48455 | 19.38425 | 34979 ft | 364 kts | 294° |
| 2026-04-24 19:12 | 52.49356 | 19.34546 | 35364 ft | 365 kts | 294° |
| 2026-04-24 19:12 | 52.50263 | 19.30634 | 35785 ft | 365 kts | 294° |
| 2026-04-24 19:12 | 52.51169 | 19.26718 | 35934 ft | 368 kts | 294° |
| 2026-04-24 19:13 | 52.52669 | 19.20212 | 35957 ft | 365 kts | 294° |
| 2026-04-24 19:13 | 52.54763 | 19.11104 | 35975 ft | 365 kts | 293° |
| 2026-04-24 19:14 | 52.56559 | 19.03261 | 35972 ft | 366 kts | 293° |
| 2026-04-24 19:14 | 52.58351 | 18.95403 | 35968 ft | 366 kts | 293° |
| 2026-04-24 19:15 | 52.60135 | 18.87549 | 35971 ft | 366 kts | 293° |
| 2026-04-24 19:15 | 52.61909 | 18.79712 | 35971 ft | 365 kts | 293° |
| 2026-04-24 19:16 | 52.65003 | 18.68342 | 35834 ft | 364 kts | 294° |
| 2026-04-24 19:16 | 52.65845 | 18.64408 | 35946 ft | 363 kts | 291° |
| 2026-04-24 19:16 | 52.66607 | 18.60448 | 35969 ft | 364 kts | 290° |
| 2026-04-24 19:17 | 52.67908 | 18.53779 | 35974 ft | 364 kts | 291° |
| 2026-04-24 19:17 | 52.69543 | 18.45906 | 35974 ft | 363 kts | 292° |
| 2026-04-24 19:18 | 52.71236 | 18.38093 | 35992 ft | 367 kts | 292° |
| 2026-04-24 19:18 | 52.73011 | 18.30020 | 35997 ft | 380 kts | 292° |
| 2026-04-24 19:19 | 52.74824 | 18.21776 | 35981 ft | 382 kts | 292° |
| 2026-04-24 19:19 | 52.76633 | 18.13524 | 35983 ft | 382 kts | 292° |
| 2026-04-24 19:20 | 52.78430 | 18.05297 | 35978 ft | 381 kts | 292° |
| 2026-04-24 19:20 | 52.80234 | 17.97001 | 35982 ft | 379 kts | 292° |
| 2026-04-24 19:21 | 52.82000 | 17.88853 | 35984 ft | 377 kts | 292° |
| 2026-04-24 19:21 | 52.83768 | 17.80660 | 35982 ft | 376 kts | 292° |
| 2026-04-24 19:22 | 52.85510 | 17.72563 | 35986 ft | 375 kts | 292° |
| 2026-04-24 19:22 | 52.87245 | 17.64456 | 35974 ft | 362 kts | 292° |
| 2026-04-24 19:23 | 52.88062 | 17.60616 | 35958 ft | 347 kts | 292° |
| 2026-04-24 19:23 | 52.88861 | 17.56863 | 35239 ft | 350 kts | 292° |
| 2026-04-24 19:23 | 52.89692 | 17.52968 | 34259 ft | 362 kts | 291° |
| 2026-04-24 19:23 | 52.90533 | 17.49017 | 33609 ft | 363 kts | 291° |
| 2026-04-24 19:24 | 52.91360 | 17.45115 | 33127 ft | 358 kts | 291° |
| 2026-04-24 19:24 | 52.92185 | 17.41209 | 32647 ft | 354 kts | 291° |
| 2026-04-24 19:24 | 52.92992 | 17.37382 | 32136 ft | 351 kts | 291° |
| 2026-04-24 19:24 | 52.93790 | 17.33597 | 31622 ft | 349 kts | 291° |
| 2026-04-24 19:25 | 52.94585 | 17.29815 | 31130 ft | 346 kts | 291° |
| 2026-04-24 19:25 | 52.95380 | 17.26026 | 30582 ft | 346 kts | 291° |
| 2026-04-24 19:25 | 52.96170 | 17.22259 | 30146 ft | 342 kts | 291° |
| 2026-04-24 19:25 | 52.96943 | 17.18559 | 29638 ft | 339 kts | 291° |
| 2026-04-24 19:26 | 52.97715 | 17.14860 | 29177 ft | 335 kts | 291° |
| 2026-04-24 19:26 | 52.98465 | 17.11261 | 28745 ft | 330 kts | 291° |
| 2026-04-24 19:26 | 52.99208 | 17.07683 | 28316 ft | 323 kts | 291° |
| 2026-04-24 19:26 | 52.99929 | 17.04209 | 27900 ft | 315 kts | 291° |
| 2026-04-24 19:27 | 53.00633 | 17.00808 | 27496 ft | 307 kts | 291° |
| 2026-04-24 19:27 | 53.01320 | 16.97485 | 27092 ft | 302 kts | 291° |
| 2026-04-24 19:27 | 53.01997 | 16.94210 | 26713 ft | 302 kts | 291° |
| 2026-04-24 19:27 | 53.02689 | 16.90865 | 26195 ft | 308 kts | 291° |
| 2026-04-24 19:28 | 53.03392 | 16.87463 | 25522 ft | 317 kts | 291° |
| 2026-04-24 19:28 | 53.04115 | 16.83952 | 24922 ft | 321 kts | 291° |
| 2026-04-24 19:28 | 53.04840 | 16.80422 | 24431 ft | 321 kts | 291° |
| 2026-04-24 19:28 | 53.05556 | 16.76923 | 24045 ft | 319 kts | 291° |
| 2026-04-24 19:29 | 53.06955 | 16.70057 | 23548 ft | 311 kts | 291° |
| 2026-04-24 19:29 | 53.07654 | 16.66629 | 23064 ft | 312 kts | 291° |
| 2026-04-24 19:29 | 53.08362 | 16.63150 | 22518 ft | 312 kts | 291° |
| 2026-04-24 19:30 | 53.09050 | 16.59763 | 22039 ft | 311 kts | 291° |
| 2026-04-24 19:30 | 53.09745 | 16.56330 | 21603 ft | 309 kts | 291° |
| 2026-04-24 19:30 | 53.10426 | 16.52965 | 21183 ft | 306 kts | 291° |
| 2026-04-24 19:30 | 53.11100 | 16.49627 | 20761 ft | 304 kts | 291° |
| 2026-04-24 19:31 | 53.11772 | 16.46295 | 20344 ft | 303 kts | 291° |
| 2026-04-24 19:31 | 53.12441 | 16.42968 | 19941 ft | 301 kts | 290° |
| 2026-04-24 19:31 | 53.13102 | 16.39680 | 19530 ft | 299 kts | 290° |
| 2026-04-24 19:31 | 53.13759 | 16.36405 | 19135 ft | 297 kts | 290° |
| 2026-04-24 19:32 | 53.14414 | 16.33138 | 18748 ft | 295 kts | 290° |
| 2026-04-24 19:32 | 53.15060 | 16.29905 | 18367 ft | 294 kts | 290° |
| 2026-04-24 19:32 | 53.15702 | 16.26688 | 17946 ft | 292 kts | 290° |
| 2026-04-24 19:32 | 53.16342 | 16.23478 | 17506 ft | 291 kts | 290° |
| 2026-04-24 19:33 | 53.16978 | 16.20279 | 17083 ft | 289 kts | 290° |
| 2026-04-24 19:33 | 53.17611 | 16.17091 | 16660 ft | 287 kts | 290° |
| 2026-04-24 19:33 | 53.18232 | 16.13962 | 16256 ft | 286 kts | 290° |
| 2026-04-24 19:33 | 53.18855 | 16.10812 | 15862 ft | 284 kts | 290° |
| 2026-04-24 19:34 | 53.19479 | 16.07660 | 15483 ft | 283 kts | 290° |
| 2026-04-24 19:34 | 53.20098 | 16.04519 | 15068 ft | 282 kts | 290° |
| 2026-04-24 19:34 | 53.20702 | 16.01456 | 14680 ft | 281 kts | 290° |
| 2026-04-24 19:34 | 53.21327 | 15.98281 | 14296 ft | 279 kts | 290° |
| 2026-04-24 19:35 | 53.21925 | 15.95235 | 13930 ft | 278 kts | 290° |
| 2026-04-24 19:35 | 53.22524 | 15.92180 | 13525 ft | 277 kts | 290° |
| 2026-04-24 19:35 | 53.23125 | 15.89111 | 13113 ft | 276 kts | 291° |
| 2026-04-24 19:35 | 53.23725 | 15.86041 | 12706 ft | 274 kts | 291° |
| 2026-04-24 19:36 | 53.24316 | 15.83012 | 12297 ft | 273 kts | 291° |
| 2026-04-24 19:36 | 53.24898 | 15.80022 | 11922 ft | 272 kts | 291° |
| 2026-04-24 19:36 | 53.25487 | 15.76995 | 11537 ft | 271 kts | 291° |
| 2026-04-24 19:36 | 53.26063 | 15.74032 | 11152 ft | 270 kts | 291° |
| 2026-04-24 19:37 | 53.26640 | 15.71055 | 10779 ft | 269 kts | 291° |
| 2026-04-24 19:37 | 53.27220 | 15.68062 | 10406 ft | 267 kts | 291° |
| 2026-04-24 19:37 | 53.27788 | 15.65124 | 10038 ft | 267 kts | 291° |
| 2026-04-24 19:37 | 53.28359 | 15.62177 | 9642 ft | 266 kts | 291° |
| 2026-04-24 19:38 | 53.28922 | 15.59253 | 9268 ft | 264 kts | 291° |
| 2026-04-24 19:38 | 53.29486 | 15.56323 | 8899 ft | 262 kts | 291° |
| 2026-04-24 19:38 | 53.30044 | 15.53432 | 8536 ft | 260 kts | 292° |
| 2026-04-24 19:38 | 53.30840 | 15.50765 | 8176 ft | 255 kts | 304° |
| 2026-04-24 19:39 | 53.31821 | 15.48359 | 7923 ft | 245 kts | 307° |
| 2026-04-24 19:39 | 53.32796 | 15.46058 | 7650 ft | 239 kts | 307° |
| 2026-04-24 19:39 | 53.33711 | 15.43873 | 7500 ft | 220 kts | 306° |
| 2026-04-24 19:39 | 53.34554 | 15.41828 | 7182 ft | 213 kts | 306° |
| 2026-04-24 19:40 | 53.35129 | 15.40423 | 6630 ft | 224 kts | 306° |
| 2026-04-24 19:40 | 53.36040 | 15.38186 | 6151 ft | 229 kts | 305° |
| 2026-04-24 19:40 | 53.37236 | 15.35230 | 6045 ft | 237 kts | 305° |
| 2026-04-24 19:40 | 53.38164 | 15.32934 | 5885 ft | 244 kts | 305° |
| 2026-04-24 19:41 | 53.38813 | 15.31323 | 5612 ft | 248 kts | 304° |
| 2026-04-24 19:41 | 53.39772 | 15.28938 | 5237 ft | 247 kts | 304° |
| 2026-04-24 19:41 | 53.40728 | 15.26562 | 4870 ft | 243 kts | 304° |
| 2026-04-24 19:41 | 53.41654 | 15.24256 | 4491 ft | 234 kts | 304° |
| 2026-04-24 19:42 | 53.42554 | 15.22013 | 4152 ft | 225 kts | 304° |
| 2026-04-24 19:42 | 53.43411 | 15.19874 | 3823 ft | 218 kts | 304° |
| 2026-04-24 19:42 | 53.44252 | 15.17808 | 3556 ft | 210 kts | 307° |
| 2026-04-24 19:42 | 53.45204 | 15.15986 | 3347 ft | 206 kts | 311° |
| 2026-04-24 19:43 | 53.46142 | 15.14242 | 3128 ft | 197 kts | 310° |
| 2026-04-24 19:43 | 53.47021 | 15.12551 | 2934 ft | 182 kts | 310° |
| 2026-04-24 19:43 | 53.47811 | 15.11015 | 2739 ft | 165 kts | 309° |
| 2026-04-24 19:43 | 53.48519 | 15.09632 | 2562 ft | 150 kts | 309° |
| 2026-04-24 19:44 | 53.49170 | 15.08358 | 2421 ft | 139 kts | 309° |
| 2026-04-24 19:44 | 53.49796 | 15.07136 | 2308 ft | 136 kts | 309° |
| 2026-04-24 19:44 | 53.50392 | 15.05971 | 2156 ft | 128 kts | 309° |
| 2026-04-24 19:44 | 53.50978 | 15.04826 | 2044 ft | 129 kts | 309° |
| 2026-04-24 19:45 | 53.51568 | 15.03675 | 1918 ft | 130 kts | 309° |
| 2026-04-24 19:45 | 53.52150 | 15.02538 | 1788 ft | 129 kts | 309° |
| 2026-04-24 19:45 | 53.52725 | 15.01418 | 1707 ft | 124 kts | 308° |
| 2026-04-24 19:45 | 53.53290 | 15.00316 | 1548 ft | 125 kts | 308° |
| 2026-04-24 19:46 | 53.53864 | 14.99195 | 1383 ft | 126 kts | 308° |
| 2026-04-24 19:46 | 53.54441 | 14.98069 | 1202 ft | 126 kts | 308° |
| 2026-04-24 19:46 | 53.55014 | 14.96952 | 1027 ft | 127 kts | 309° |
| 2026-04-24 19:46 | 53.55599 | 14.95815 | 841 ft | 132 kts | 309° |
| 2026-04-24 19:47 | 53.56202 | 14.94638 | 666 ft | 133 kts | 309° |
| 2026-04-24 19:47 | 53.56815 | 14.93445 | 466 ft | 133 kts | 309° |
| 2026-04-24 19:47 | 53.57418 | 14.92265 | 351 ft | 133 kts | 308° |
| 2026-04-24 19:47 | 53.58022 | 14.91084 | 197 ft | 135 kts | 310° |
| 2026-04-24 19:48 | 53.58625 | 14.89932 | 143 ft | 120 kts | 309° |
| 2026-04-24 19:48 | 53.58965 | 14.89280 | 137 ft | 40 kts | 310° |
| 2026-04-24 19:48 | 53.59135 | 14.89208 | 135 ft | 0 kts | 41° |
| 2026-04-24 19:49 | 53.59138 | 14.89212 | 135 ft | 2 kts | 41° |
| 2026-04-24 19:50 | 53.59250 | 14.89397 | 126 ft | 0 kts | 48° |